.
Local / Fort Wayne - NE Ind.

U N D E R   C O N S T R U C T I O N

Local Weather
Fort Wayne – NE Indiana

Northern Indiana (IWX) Radar

Latest IWX NEXRAD
Base Reflectivity



Latest IWX NEXRAD
Base Velocity

Indiana-Ohio Visible Satellite

For infrared and water vapor imagery, see Great Lakes - Midwest.

Current Conditions

Recent report from the Fort Wayne International Airport

Oct 17, 2019 - 11:54 PM EDT / 2019.10.18 0354 UTC


The skies are mostly cloudy. The temperature is 45.0 F (7.2 C) and the dew point is 39.0 F (3.9 C), giving a relative humidity of 79%. The barometric pressure is 30.04 in. Hg (1017 hPa). The wind is from the WNW (290 degrees) at 5 MPH (4 KT), and the visibility is 10 mile(s).

KFWA 180354Z 29004KT 10SM BKN032 07/04 A3004 RMK AO2 SLP177 T00720039

Local Weather — Contents

Local Weather — Links

CoCoRaHS
IN-AL-39
A2 Web Hosting
Creative Commons License
GoDaddy
search engine by freefind advanced

loaded 2019-10-18 00:23:43 • last modified 2017-02-11 13:27:36
Privacy PolicyDisclaimer
• wx.awcolley.com is powered by PmWiki v.2002016 •
• all content (unless otherwise noted) © 2019 A W Colley